createdAt,value
2019-02-11T13:57:35.575Z,23.90
2019-02-11T14:00:08.902Z,19.20
2019-02-11T14:02:45.575Z,18.60
2019-02-11T14:05:14.841Z,18.90
2019-02-11T14:07:43.599Z,18.90
2019-02-11T14:10:13.536Z,18.70
2019-02-11T14:12:43.743Z,18.20
2019-02-11T14:15:12.921Z,17.40
2019-02-11T14:17:41.754Z,16.20
2019-02-11T14:20:17.359Z,14.50
2019-02-11T14:22:45.915Z,12.60
2019-02-11T14:25:16.072Z,10.90
2019-02-11T14:27:45.015Z,9.70
2019-02-11T14:30:14.476Z,8.90
2019-02-11T14:32:43.838Z,8.40
2019-02-11T14:35:12.676Z,8.10
2019-02-11T14:37:41.727Z,7.80
2019-02-11T14:40:12.511Z,7.70
2019-02-11T14:42:41.383Z,7.60
2019-02-11T14:45:13.058Z,7.60
2019-02-11T14:47:44.363Z,7.50
2019-02-11T14:50:13.581Z,7.50
2019-02-11T14:52:42.700Z,7.60
2019-02-11T14:55:12.300Z,7.60
2019-02-11T14:57:41.257Z,7.70
2019-02-11T15:00:15.487Z,7.80
2019-02-11T15:02:44.475Z,7.80
2019-02-11T15:05:14.727Z,7.90
2019-02-11T15:07:43.863Z,8.00
2019-02-11T15:10:13.029Z,8.10
2019-02-11T15:12:44.216Z,8.20
2019-02-11T15:15:13.069Z,8.30
2019-02-11T15:17:42.045Z,8.30
2019-02-11T15:20:12.462Z,8.30
2019-02-11T15:22:40.941Z,8.40
2019-02-11T15:25:14.440Z,8.50
2019-02-11T15:27:44.389Z,8.50
2019-02-11T15:30:15.291Z,8.60
2019-02-11T15:32:44.203Z,8.70
2019-02-11T15:35:13.511Z,8.70
2019-02-11T15:37:41.864Z,8.70
2019-02-11T15:40:13.223Z,8.70
2019-02-11T15:42:42.616Z,8.70
2019-02-11T15:45:13.503Z,8.70
2019-02-11T15:47:43.114Z,8.70
2019-02-11T15:50:12.560Z,8.80
2019-02-11T15:52:42.251Z,8.80
2019-02-11T15:55:13.255Z,8.80
2019-02-11T15:57:44.019Z,8.80
2019-02-11T16:00:14.951Z,8.80
2019-02-11T16:02:43.803Z,8.90
2019-02-11T16:05:16.544Z,8.90
2019-02-11T16:07:46.621Z,8.80
2019-02-11T16:10:17.479Z,8.80
2019-02-11T16:12:46.305Z,8.80
2019-02-11T16:15:15.012Z,8.80
2019-02-11T16:17:43.669Z,8.80
2019-02-11T16:20:14.682Z,8.80
2019-02-11T16:22:46.588Z,8.70
2019-02-11T16:25:18.231Z,8.70
2019-02-11T16:27:47.500Z,8.70
2019-02-11T16:30:17.968Z,8.70
2019-02-11T16:32:46.778Z,8.70
2019-02-11T16:35:15.733Z,8.70
2019-02-11T16:37:46.088Z,8.70
2019-02-11T16:40:18.863Z,8.70
2019-02-11T16:42:47.423Z,8.70
2019-02-11T16:45:16.072Z,8.60
2019-02-11T16:47:45.780Z,8.60
2019-02-11T16:50:14.715Z,8.60
2019-02-11T16:52:43.852Z,8.60
2019-02-11T16:55:13.485Z,8.60
2019-02-11T16:57:42.314Z,8.60
2019-02-11T17:00:13.506Z,8.60
2019-02-11T17:02:42.399Z,8.70
2019-02-11T17:05:12.243Z,8.70
2019-02-11T17:07:42.236Z,8.80
2019-02-11T17:10:12.015Z,8.80
2019-02-11T17:12:40.572Z,8.80
2019-02-11T17:15:11.375Z,8.90
2019-02-11T17:17:39.743Z,8.90
2019-02-11T17:20:09.588Z,8.90
2019-02-11T17:22:38.066Z,8.90
2019-02-11T17:25:07.673Z,8.90
2019-02-11T17:27:36.328Z,8.90
2019-02-11T17:30:06.596Z,9.00
2019-02-11T17:32:35.015Z,9.00
2019-02-11T17:35:04.304Z,9.00
2019-02-11T17:37:32.978Z,9.00
2019-02-11T17:40:01.863Z,8.90
2019-02-11T17:42:30.427Z,8.90
2019-02-11T17:44:58.866Z,8.90
2019-02-11T17:47:27.831Z,8.90
2019-02-11T17:49:56.351Z,8.90
2019-02-11T17:52:25.186Z,8.90
2019-02-11T17:54:53.818Z,8.90
2019-02-11T17:57:22.317Z,8.90
2019-02-11T17:59:50.791Z,9.00
2019-02-11T18:02:19.246Z,8.90
2019-02-11T18:04:48.048Z,9.00
2019-02-11T18:07:16.452Z,9.00
2019-02-11T18:09:44.923Z,9.00
2019-02-11T18:12:15.000Z,9.00
2019-02-11T18:14:43.801Z,9.10
2019-02-11T18:17:12.582Z,9.10
2019-02-11T18:19:41.324Z,9.10
2019-02-11T18:22:10.325Z,9.10
2019-02-11T18:24:38.679Z,9.10
2019-02-11T18:27:20.769Z,9.10
2019-02-11T18:29:49.798Z,9.20
2019-02-11T18:32:18.788Z,9.10
2019-02-11T18:34:47.710Z,9.10
2019-02-11T18:37:16.600Z,9.10
2019-02-11T18:39:45.594Z,9.10
2019-02-11T18:42:14.181Z,9.10
2019-02-11T18:44:42.748Z,9.10
2019-02-11T18:47:12.047Z,9.10
2019-02-11T18:49:42.126Z,9.10
2019-02-11T18:52:11.188Z,9.10
2019-02-11T18:54:40.039Z,9.10
2019-02-11T18:57:08.948Z,9.20
2019-02-11T18:59:38.128Z,9.20
2019-02-11T19:02:06.712Z,9.20
2019-02-11T19:04:36.160Z,9.20
2019-02-11T19:07:05.379Z,9.20
2019-02-11T19:09:34.249Z,9.20
2019-02-11T19:12:03.444Z,9.20
2019-02-11T19:14:32.026Z,9.20
2019-02-11T19:17:00.979Z,9.20
2019-02-11T19:19:30.298Z,9.30
2019-02-11T19:21:59.364Z,9.20
2019-02-11T19:24:27.856Z,9.20
2019-02-11T19:26:56.437Z,9.20
2019-02-11T19:29:25.256Z,9.20
2019-02-11T19:31:54.064Z,9.20
2019-02-11T19:34:23.160Z,9.20
2019-02-11T19:36:52.306Z,9.20
2019-02-11T19:39:21.597Z,9.20
2019-02-11T19:41:50.344Z,9.20
2019-02-11T19:44:19.147Z,9.20
2019-02-11T19:46:48.063Z,9.20
2019-02-11T19:49:16.723Z,9.20
2019-02-11T19:51:45.452Z,9.20
2019-02-11T19:54:18.921Z,9.20
2019-02-11T19:56:48.320Z,9.20
2019-02-11T19:59:16.992Z,9.20
2019-02-11T20:01:45.963Z,9.20
2019-02-11T20:04:14.997Z,9.20
2019-02-11T20:06:44.125Z,9.20
2019-02-11T20:09:13.379Z,9.20
2019-02-11T20:11:42.434Z,9.10
2019-02-11T20:14:11.456Z,9.10
2019-02-11T20:16:40.177Z,9.10
2019-02-11T20:19:09.028Z,9.10
2019-02-11T20:21:37.998Z,9.10
2019-02-11T20:24:07.661Z,9.00
2019-02-11T20:26:36.828Z,9.00
2019-02-11T20:29:05.887Z,9.00
2019-02-11T20:31:35.044Z,9.00
2019-02-11T20:34:05.017Z,8.90
2019-02-11T20:36:34.311Z,8.90
2019-02-11T20:39:04.712Z,8.90
2019-02-11T20:41:37.800Z,8.80
2019-02-11T20:44:08.978Z,8.80
2019-02-11T20:46:39.101Z,8.80
2019-02-11T20:49:07.883Z,8.80
2019-02-11T20:51:37.594Z,8.80
2019-02-11T20:54:06.963Z,8.70
2019-02-11T20:56:36.359Z,8.70
2019-02-11T20:59:05.662Z,8.70
2019-02-11T21:01:35.473Z,8.60
2019-02-11T21:04:04.573Z,8.60
2019-02-11T21:06:33.631Z,8.50
2019-02-11T21:09:04.205Z,8.50
2019-02-11T21:11:36.702Z,8.50
2019-02-11T21:14:10.707Z,8.40
2019-02-11T21:16:45.852Z,8.30
2019-02-11T21:19:15.578Z,8.30
2019-02-11T21:21:44.916Z,8.20
2019-02-11T21:24:14.087Z,8.20
2019-02-11T21:26:43.856Z,8.10
2019-02-11T21:29:12.640Z,8.00
2019-02-11T21:31:41.392Z,8.00
2019-02-11T21:34:10.604Z,8.00
2019-02-11T21:36:39.596Z,8.00
2019-02-11T21:39:09.049Z,7.90
2019-02-11T21:41:37.914Z,7.90
2019-02-11T21:44:07.195Z,7.90
2019-02-11T21:46:36.449Z,7.90
2019-02-11T21:49:05.183Z,7.80
2019-02-11T21:51:33.909Z,7.80
2019-02-11T21:54:02.628Z,7.80
2019-02-11T21:56:31.754Z,7.80
2019-02-11T21:59:00.342Z,7.80
2019-02-11T22:01:29.773Z,7.80
2019-02-11T22:03:59.023Z,7.80
2019-02-11T22:06:27.886Z,7.80
2019-02-11T22:08:56.908Z,7.80
2019-02-11T22:11:26.699Z,7.80
2019-02-11T22:13:56.019Z,7.90
2019-02-11T22:16:25.085Z,7.90
2019-02-11T22:18:54.427Z,7.90
2019-02-11T22:21:24.433Z,7.90
2019-02-11T22:23:53.518Z,7.90
2019-02-11T22:26:22.905Z,7.90
2019-02-11T22:28:51.823Z,7.90
2019-02-11T22:31:20.558Z,7.90
2019-02-11T22:33:49.232Z,7.90
2019-02-11T22:36:18.146Z,7.90
2019-02-11T22:38:46.895Z,7.90
2019-02-11T22:41:16.840Z,7.80
2019-02-11T22:43:46.101Z,7.80
2019-02-11T22:46:14.827Z,7.80
2019-02-11T22:48:44.928Z,7.70
2019-02-11T22:51:14.080Z,7.70
2019-02-11T22:53:42.976Z,7.70
2019-02-11T22:56:11.986Z,7.60
2019-02-11T22:58:40.870Z,7.60
2019-02-11T23:01:10.440Z,7.60
2019-02-11T23:03:39.191Z,7.50
2019-02-11T23:06:08.192Z,7.50
2019-02-11T23:08:42.630Z,7.50
2019-02-11T23:11:11.871Z,7.50
2019-02-11T23:13:40.844Z,7.50
2019-02-11T23:16:09.431Z,7.50
2019-02-11T23:18:38.692Z,7.40
2019-02-11T23:21:08.592Z,7.40
2019-02-11T23:23:37.443Z,7.40
2019-02-11T23:26:06.064Z,7.40
2019-02-11T23:28:35.484Z,7.40
2019-02-11T23:31:04.461Z,7.30
2019-02-11T23:33:33.459Z,7.30
2019-02-11T23:36:02.720Z,7.30
2019-02-11T23:38:31.549Z,7.30
2019-02-11T23:41:00.372Z,7.40
2019-02-11T23:43:29.288Z,7.40
2019-02-11T23:45:57.994Z,7.40
2019-02-11T23:48:26.718Z,7.30
2019-02-11T23:51:00.434Z,7.30
2019-02-11T23:53:26.252Z,7.30
2019-02-11T23:55:54.932Z,7.20
2019-02-11T23:58:23.623Z,7.20
